createdAt,value
2019-02-15T00:01:01.629Z,6.43
2019-02-15T00:03:32.117Z,6.40
2019-02-15T00:06:02.611Z,6.20
2019-02-15T00:08:33.135Z,5.80
2019-02-15T00:11:03.627Z,6.20
2019-02-15T00:13:34.225Z,5.83
2019-02-15T00:16:04.768Z,5.30
2019-02-15T00:18:41.482Z,5.80
2019-02-15T00:21:26.295Z,5.90
2019-02-15T00:23:56.775Z,5.87
2019-02-15T00:26:27.226Z,5.90
2019-02-15T00:28:57.676Z,5.90
2019-02-15T00:31:28.167Z,6.13
2019-02-15T00:33:58.611Z,7.50
2019-02-15T00:36:29.828Z,7.93
2019-02-15T00:39:00.262Z,7.80
2019-02-15T00:41:30.721Z,7.27
2019-02-15T00:44:01.215Z,7.73
2019-02-15T00:46:50.519Z,7.53
2019-02-15T00:49:31.120Z,7.10
2019-02-15T00:52:26.472Z,7.40
2019-02-15T00:55:18.581Z,7.03
2019-02-15T00:58:17.171Z,6.63
2019-02-15T01:00:58.870Z,6.27
2019-02-15T01:03:57.380Z,6.80
2019-02-15T01:06:45.381Z,6.37
2019-02-15T01:09:34.666Z,6.17
2019-02-15T01:12:14.903Z,6.57
2019-02-15T01:14:45.353Z,7.23
2019-02-15T01:17:15.801Z,6.10
2019-02-15T01:19:46.297Z,6.10
2019-02-15T01:22:16.749Z,5.50
2019-02-15T01:24:47.253Z,5.20
2019-02-15T01:27:51.596Z,5.40
2019-02-15T01:30:40.123Z,5.70
2019-02-15T01:33:28.028Z,5.40
2019-02-15T01:36:23.437Z,5.13
2019-02-15T01:39:09.619Z,5.17
2019-02-15T01:42:04.995Z,6.30
2019-02-15T01:44:57.102Z,6.10
2019-02-15T01:47:34.687Z,6.20
2019-02-15T01:50:05.538Z,6.90
2019-02-15T01:52:36.030Z,7.37
2019-02-15T01:55:06.755Z,7.63
2019-02-15T01:57:37.210Z,8.27
2019-02-15T02:00:10.064Z,8.70
2019-02-15T02:02:40.564Z,8.47
2019-02-15T02:05:11.099Z,8.40
2019-02-15T02:07:41.601Z,8.80
2019-02-15T02:10:12.683Z,7.93
2019-02-15T02:12:43.146Z,8.03
2019-02-15T02:15:13.723Z,8.40
2019-02-15T02:17:44.171Z,8.23
2019-02-15T02:20:14.799Z,8.37
2019-02-15T02:22:45.244Z,8.80
2019-02-15T02:25:15.762Z,9.03
2019-02-15T02:27:46.218Z,9.07
2019-02-15T02:30:16.816Z,9.40
2019-02-15T02:32:47.277Z,9.43
2019-02-15T02:35:17.736Z,9.93
2019-02-15T02:37:48.246Z,9.90
2019-02-15T02:40:18.719Z,10.63
2019-02-15T02:42:49.215Z,11.13
2019-02-15T02:45:19.728Z,11.53
2019-02-15T02:47:50.334Z,11.43
2019-02-15T02:50:20.790Z,11.00
2019-02-15T02:52:51.312Z,11.40
2019-02-15T02:55:21.769Z,11.40
2019-02-15T02:57:52.262Z,9.97
2019-02-15T03:00:22.721Z,9.63
2019-02-15T03:02:53.176Z,10.17
2019-02-15T03:05:23.697Z,11.20
2019-02-15T03:07:54.198Z,11.60
2019-02-15T03:10:24.757Z,11.17
2019-02-15T03:12:55.263Z,13.00
2019-02-15T03:15:25.721Z,17.23
2019-02-15T03:17:56.243Z,15.93
2019-02-15T03:20:31.183Z,14.13
2019-02-15T03:22:58.883Z,13.77
2019-02-15T03:25:29.395Z,14.03
2019-02-15T03:27:59.919Z,11.97
2019-02-15T03:30:30.432Z,13.87
2019-02-15T03:33:00.958Z,14.50
2019-02-15T03:35:31.481Z,14.63
2019-02-15T03:38:19.235Z,14.43
2019-02-15T03:40:52.944Z,14.80
2019-02-15T03:43:23.418Z,14.73
2019-02-15T03:45:54.076Z,15.27
2019-02-15T03:48:24.614Z,17.57
2019-02-15T03:50:55.242Z,15.43
2019-02-15T03:53:25.756Z,15.53
2019-02-15T03:55:56.478Z,13.93
2019-02-15T03:58:26.943Z,14.10
2019-02-15T04:00:57.572Z,14.13
2019-02-15T04:03:30.960Z,14.03
2019-02-15T04:06:01.445Z,15.27
2019-02-15T04:08:31.952Z,14.97
2019-02-15T04:11:02.431Z,15.80
2019-02-15T04:13:32.949Z,14.97
2019-02-15T04:16:03.470Z,15.30
2019-02-15T04:18:33.935Z,12.87
2019-02-15T04:21:04.430Z,11.03
2019-02-15T04:23:34.968Z,11.70
2019-02-15T04:26:05.449Z,11.00
2019-02-15T04:28:35.956Z,11.73
2019-02-15T04:31:06.475Z,13.30
2019-02-15T04:33:36.990Z,13.53
2019-02-15T04:36:07.622Z,13.43
2019-02-15T04:38:38.118Z,13.83
2019-02-15T04:41:08.639Z,14.10
2019-02-15T04:43:39.160Z,13.63
2019-02-15T04:46:09.624Z,12.83
2019-02-15T04:48:40.134Z,13.10
2019-02-15T04:51:10.653Z,13.13
2019-02-15T04:53:41.112Z,12.33
2019-02-15T04:56:11.680Z,12.77
2019-02-15T04:58:42.197Z,12.63
2019-02-15T05:01:12.665Z,12.67
2019-02-15T05:03:43.177Z,12.53
2019-02-15T05:06:13.664Z,12.47
2019-02-15T05:08:44.116Z,12.23
2019-02-15T05:11:14.635Z,12.70
2019-02-15T05:13:45.111Z,11.70
2019-02-15T05:16:15.633Z,12.77
2019-02-15T05:18:46.141Z,12.07
2019-02-15T05:21:16.627Z,12.33
2019-02-15T05:23:47.145Z,12.17
2019-02-15T05:26:17.609Z,11.67
2019-02-15T05:28:48.107Z,11.57
2019-02-15T05:31:18.612Z,11.53
2019-02-15T05:33:49.126Z,11.30
2019-02-15T05:36:19.564Z,10.77
2019-02-15T05:38:50.046Z,10.40
2019-02-15T05:41:20.543Z,9.63
2019-02-15T05:43:51.016Z,10.50
2019-02-15T05:46:21.533Z,11.77
2019-02-15T05:48:51.995Z,12.13
2019-02-15T05:51:22.470Z,12.17
2019-02-15T05:53:53.147Z,12.73
2019-02-15T05:56:23.661Z,13.17
2019-02-15T05:58:54.205Z,11.23
2019-02-15T06:01:25.905Z,10.30
2019-02-15T06:03:56.374Z,11.23
2019-02-15T06:06:26.903Z,9.90
2019-02-15T06:08:57.394Z,9.87
2019-02-15T06:11:27.893Z,9.47
2019-02-15T06:13:58.417Z,9.83
2019-02-15T06:16:28.865Z,10.30
2019-02-15T06:18:59.336Z,10.43
2019-02-15T06:21:29.849Z,10.63
2019-02-15T06:24:00.365Z,10.40
2019-02-15T06:26:30.837Z,12.00
2019-02-15T06:29:01.346Z,11.50
2019-02-15T06:31:31.838Z,11.10
2019-02-15T06:34:02.365Z,10.63
2019-02-15T06:36:36.142Z,10.63
2019-02-15T06:39:08.800Z,11.50
2019-02-15T06:41:39.359Z,10.00
2019-02-15T06:44:09.872Z,9.63
2019-02-15T06:46:40.527Z,9.80
2019-02-15T06:49:11.061Z,9.90
2019-02-15T06:51:41.540Z,8.83
2019-02-15T06:54:12.080Z,9.07
2019-02-15T06:56:42.607Z,9.80
2019-02-15T06:59:35.161Z,9.60
2019-02-15T07:02:28.986Z,9.43
2019-02-15T07:05:30.589Z,12.23
2019-02-15T07:08:01.133Z,9.47
2019-02-15T07:10:31.678Z,10.10
2019-02-15T07:13:02.183Z,9.77
2019-02-15T07:15:33.978Z,9.50
2019-02-15T07:18:04.598Z,8.13
2019-02-15T07:20:35.047Z,5.27
2019-02-15T07:23:05.508Z,6.37
2019-02-15T07:25:36.069Z,6.93
2019-02-15T07:28:06.546Z,7.37
2019-02-15T07:30:37.060Z,6.17
2019-02-15T07:33:07.610Z,6.07
2019-02-15T07:35:38.064Z,5.00
2019-02-15T07:38:08.614Z,6.13
2019-02-15T07:40:39.064Z,6.13
2019-02-15T07:43:09.683Z,5.10
2019-02-15T07:45:42.903Z,3.60
2019-02-15T07:48:12.431Z,3.17
2019-02-15T07:50:42.998Z,3.43
2019-02-15T07:53:13.512Z,3.70
2019-02-15T07:55:43.977Z,4.07
2019-02-15T07:58:14.495Z,3.63
2019-02-15T08:00:45.022Z,4.13
2019-02-15T08:03:15.479Z,4.30
2019-02-15T08:05:46.002Z,4.07
2019-02-15T08:08:16.490Z,5.13
2019-02-15T08:10:46.983Z,3.60
2019-02-15T08:13:17.451Z,3.70
2019-02-15T08:15:52.128Z,4.63
2019-02-15T08:18:20.128Z,4.90
2019-02-15T08:20:50.629Z,4.30
2019-02-15T08:23:21.151Z,4.70
2019-02-15T08:25:51.632Z,4.60
2019-02-15T08:28:22.161Z,4.40
2019-02-15T08:30:52.659Z,4.63
2019-02-15T08:33:23.212Z,4.27
2019-02-15T08:35:53.690Z,5.03
2019-02-15T08:38:24.209Z,4.90
2019-02-15T08:40:54.683Z,4.80
2019-02-15T08:43:25.246Z,4.70
2019-02-15T08:46:00.685Z,4.90
2019-02-15T08:48:27.936Z,5.63
2019-02-15T08:50:58.448Z,5.80
2019-02-15T08:53:28.916Z,6.17
2019-02-15T08:55:59.424Z,5.33
2019-02-15T08:58:29.984Z,5.10
2019-02-15T09:01:00.493Z,4.60
2019-02-15T09:03:31.131Z,4.27
2019-02-15T09:06:01.636Z,5.10
2019-02-15T09:08:32.096Z,3.70
2019-02-15T09:11:02.631Z,3.77
2019-02-15T09:13:33.272Z,3.53
2019-02-15T09:16:10.101Z,4.93
2019-02-15T09:18:35.988Z,3.80
2019-02-15T09:21:06.495Z,3.53
2019-02-15T09:23:36.964Z,3.60
2019-02-15T09:26:07.474Z,3.50
2019-02-15T09:28:44.772Z,2.53
2019-02-15T09:31:15.327Z,3.20
2019-02-15T09:33:45.807Z,2.80
2019-02-15T09:36:16.342Z,3.27
2019-02-15T09:38:47.044Z,3.00
2019-02-15T09:41:17.512Z,3.17
2019-02-15T09:43:48.076Z,3.07
2019-02-15T09:46:20.263Z,2.90
2019-02-15T09:48:50.862Z,3.20
2019-02-15T09:51:21.324Z,2.63
2019-02-15T09:53:51.902Z,3.20
2019-02-15T09:56:22.427Z,3.97
2019-02-15T09:58:53.024Z,3.70
2019-02-15T10:01:23.705Z,3.37
2019-02-15T10:03:55.304Z,2.87
2019-02-15T10:06:25.839Z,2.80
2019-02-15T10:08:56.344Z,2.87
2019-02-15T10:11:26.826Z,2.93
2019-02-15T10:13:57.440Z,2.87
2019-02-15T10:16:30.828Z,2.23
2019-02-15T10:19:00.140Z,2.80
2019-02-15T10:21:30.615Z,2.60
2019-02-15T10:24:01.120Z,2.33
2019-02-15T10:26:31.632Z,2.27
2019-02-15T10:29:02.111Z,2.40
2019-02-15T10:31:32.837Z,2.50
2019-02-15T10:34:04.584Z,2.53
2019-02-15T10:36:35.115Z,2.20
2019-02-15T10:39:06.822Z,2.20
2019-02-15T10:41:37.394Z,1.97
2019-02-15T10:44:07.959Z,2.30
2019-02-15T10:46:38.468Z,2.53
2019-02-15T10:49:08.980Z,2.70
2019-02-15T10:51:46.261Z,2.33
2019-02-15T10:54:16.760Z,2.20
2019-02-15T10:56:47.225Z,2.50
2019-02-15T10:59:17.739Z,2.67
2019-02-15T11:01:48.279Z,2.70
2019-02-15T11:04:18.745Z,2.30
2019-02-15T11:06:51.768Z,2.63
2019-02-15T11:09:22.264Z,2.87
2019-02-15T11:11:52.724Z,2.70
2019-02-15T11:14:23.197Z,2.97
2019-02-15T11:16:53.650Z,3.07
2019-02-15T11:19:24.163Z,2.87
2019-02-15T11:21:54.752Z,3.10
2019-02-15T11:24:25.294Z,2.80
2019-02-15T11:26:55.777Z,2.43
2019-02-15T11:29:26.280Z,2.83
2019-02-15T11:31:56.776Z,3.50
2019-02-15T11:34:27.940Z,2.93
2019-02-15T11:36:58.503Z,4.80
2019-02-15T11:39:28.967Z,4.63
2019-02-15T11:41:59.595Z,5.70
2019-02-15T11:44:30.261Z,4.50
2019-02-15T11:47:00.785Z,4.73
2019-02-15T11:49:31.292Z,6.73
2019-02-15T11:52:01.812Z,5.33
2019-02-15T11:54:32.295Z,5.60
2019-02-15T11:57:02.839Z,5.90
2019-02-15T11:59:33.600Z,4.50
2019-02-15T12:02:06.531Z,7.40
2019-02-15T12:04:36.279Z,5.60
2019-02-15T12:07:06.815Z,5.90
2019-02-15T12:09:37.342Z,4.93
2019-02-15T12:12:10.656Z,5.53
2019-02-15T12:14:40.075Z,6.27
2019-02-15T12:17:10.543Z,4.97
2019-02-15T12:19:41.073Z,3.40
2019-02-15T12:22:11.522Z,2.77
2019-02-15T12:24:42.028Z,2.60
2019-02-15T12:27:12.523Z,2.50
2019-02-15T12:29:43.049Z,2.80
2019-02-15T12:32:13.552Z,3.00
2019-02-15T12:34:44.144Z,3.13
2019-02-15T12:37:14.663Z,3.27
2019-02-15T12:39:45.444Z,3.43
2019-02-15T12:42:15.983Z,2.83
2019-02-15T12:44:46.500Z,3.37
2019-02-15T12:47:17.005Z,3.40
2019-02-15T12:49:47.458Z,4.07
2019-02-15T12:52:17.988Z,3.67
2019-02-15T12:54:49.493Z,3.67
2019-02-15T12:57:20.057Z,4.07
2019-02-15T12:59:50.528Z,3.40
2019-02-15T13:02:21.041Z,3.40
2019-02-15T13:04:51.553Z,3.47
2019-02-15T13:07:22.047Z,3.30
2019-02-15T13:09:52.632Z,3.13
2019-02-15T13:12:23.174Z,3.53
2019-02-15T13:14:53.647Z,3.00
2019-02-15T13:17:24.986Z,2.53
2019-02-15T13:19:55.692Z,4.10
2019-02-15T13:22:26.199Z,4.20
2019-02-15T13:24:56.784Z,4.30
2019-02-15T13:27:27.297Z,4.00
2019-02-15T13:29:57.906Z,3.00
2019-02-15T13:32:28.409Z,3.73
2019-02-15T13:34:58.868Z,4.30
2019-02-15T13:37:29.380Z,4.50
2019-02-15T13:39:59.907Z,3.40
2019-02-15T13:42:30.548Z,3.10
2019-02-15T13:45:01.177Z,2.60
2019-02-15T13:47:34.700Z,2.50
2019-02-15T13:50:04.050Z,2.80
2019-02-15T13:52:34.578Z,2.90
2019-02-15T13:55:05.245Z,2.83
2019-02-15T13:57:35.808Z,3.30
2019-02-15T14:00:06.752Z,2.90
2019-02-15T14:02:37.224Z,2.50
2019-02-15T14:05:09.691Z,2.93
2019-02-15T14:07:40.499Z,2.53
2019-02-15T14:10:14.917Z,1.90
2019-02-15T14:12:45.471Z,2.00
2019-02-15T14:15:15.961Z,2.50
2019-02-15T14:17:48.445Z,2.97
2019-02-15T14:20:18.936Z,4.30
2019-02-15T14:22:49.414Z,3.00
2019-02-15T14:25:19.921Z,2.47
2019-02-15T14:27:50.475Z,3.60
2019-02-15T14:30:20.943Z,5.07
2019-02-15T14:32:51.441Z,6.43
2019-02-15T14:35:21.984Z,4.60
2019-02-15T14:37:52.466Z,3.60
2019-02-15T14:40:22.993Z,2.50
2019-02-15T14:42:53.478Z,2.60
2019-02-15T14:45:24.026Z,3.83
2019-02-15T14:47:55.516Z,3.70
2019-02-15T14:50:26.017Z,4.27
2019-02-15T14:52:56.573Z,3.97
2019-02-15T14:55:27.304Z,3.53
2019-02-15T14:57:57.851Z,3.60
2019-02-15T15:00:28.773Z,3.17
2019-02-15T15:02:59.320Z,2.80
2019-02-15T15:05:29.835Z,3.30
2019-02-15T15:08:00.388Z,3.40
2019-02-15T15:10:30.947Z,2.97
2019-02-15T15:13:01.622Z,3.50
2019-02-15T15:15:32.143Z,3.80
2019-02-15T15:18:12.703Z,3.80
2019-02-15T15:20:36.320Z,4.50
2019-02-15T15:23:06.861Z,4.30
2019-02-15T15:25:37.373Z,4.40
2019-02-15T15:28:07.958Z,4.60
2019-02-15T15:30:38.519Z,4.60
2019-02-15T15:33:09.071Z,4.67
2019-02-15T15:35:41.992Z,5.20
2019-02-15T15:38:12.490Z,6.60
2019-02-15T15:40:42.946Z,5.17
2019-02-15T15:43:13.448Z,5.80
2019-02-15T15:45:43.922Z,7.20
2019-02-15T15:48:22.449Z,22.47
2019-02-15T15:50:46.648Z,25.83
2019-02-15T15:53:17.119Z,34.73
2019-02-15T15:55:47.653Z,29.23
2019-02-15T15:58:18.137Z,13.60
2019-02-15T16:00:48.772Z,7.40
2019-02-15T16:03:19.256Z,6.83
2019-02-15T16:05:49.767Z,6.03
2019-02-15T16:08:20.218Z,6.17
2019-02-15T16:10:50.722Z,7.60
2019-02-15T16:13:21.243Z,6.47
2019-02-15T16:15:51.756Z,5.80
2019-02-15T16:18:22.225Z,6.43
2019-02-15T16:20:52.716Z,5.80
2019-02-15T16:23:23.222Z,5.53
2019-02-15T16:25:53.687Z,6.07
2019-02-15T16:28:24.190Z,6.03
2019-02-15T16:30:54.701Z,5.90
2019-02-15T16:33:25.256Z,6.73
2019-02-15T16:35:55.717Z,6.53
2019-02-15T16:38:26.202Z,6.87
2019-02-15T16:40:56.660Z,5.30
2019-02-15T16:43:27.165Z,5.93
2019-02-15T16:45:57.638Z,5.93
2019-02-15T16:48:28.122Z,5.70
2019-02-15T16:50:58.567Z,6.10
2019-02-15T16:53:29.075Z,6.30
2019-02-15T16:55:59.523Z,7.50
2019-02-15T16:58:30.131Z,8.93
2019-02-15T17:01:00.637Z,7.50
2019-02-15T17:03:31.146Z,7.93
2019-02-15T17:06:01.656Z,7.57
2019-02-15T17:08:32.156Z,8.17
2019-02-15T17:11:02.734Z,7.53
2019-02-15T17:13:34.680Z,7.37
2019-02-15T17:16:05.223Z,6.90
2019-02-15T17:18:35.728Z,7.50
2019-02-15T17:21:06.196Z,6.93
2019-02-15T17:23:36.698Z,7.43
2019-02-15T17:26:07.154Z,6.90
2019-02-15T17:28:39.404Z,8.40
2019-02-15T17:31:09.892Z,6.70
2019-02-15T17:33:40.399Z,7.17
2019-02-15T17:36:10.875Z,7.60
2019-02-15T17:38:42.942Z,7.53
2019-02-15T17:41:13.519Z,7.20
2019-02-15T17:43:43.972Z,7.60
2019-02-15T17:46:14.468Z,7.60
2019-02-15T17:48:44.929Z,8.40
2019-02-15T17:51:15.381Z,8.20
2019-02-15T17:53:45.883Z,8.20
2019-02-15T17:56:17.143Z,10.60
2019-02-15T17:58:47.658Z,8.90
2019-02-15T18:01:18.118Z,9.97
2019-02-15T18:03:48.617Z,9.10
2019-02-15T18:06:19.080Z,8.53
2019-02-15T18:08:49.600Z,7.73
2019-02-15T18:11:20.059Z,7.73
2019-02-15T18:13:50.572Z,7.40
2019-02-15T18:16:21.029Z,7.20
2019-02-15T18:18:51.495Z,7.50
2019-02-15T18:21:21.984Z,6.50
2019-02-15T18:23:52.456Z,8.20
2019-02-15T18:26:22.965Z,7.90
2019-02-15T18:28:53.464Z,7.50
2019-02-15T18:31:23.933Z,7.60
2019-02-15T18:33:54.435Z,7.23
2019-02-15T18:36:24.891Z,7.73
2019-02-15T18:38:55.406Z,7.60
2019-02-15T18:41:25.852Z,7.47
2019-02-15T18:43:56.304Z,7.93
2019-02-15T18:46:26.796Z,6.73
2019-02-15T18:48:57.247Z,6.80
2019-02-15T18:51:27.801Z,7.10
2019-02-15T18:53:58.257Z,7.57
2019-02-15T18:56:28.776Z,6.53
2019-02-15T18:58:59.242Z,6.37
2019-02-15T19:01:29.755Z,6.00
2019-02-15T19:04:00.274Z,6.20
2019-02-15T19:06:30.719Z,6.80
2019-02-15T19:09:01.226Z,6.47
2019-02-15T19:11:31.757Z,6.57
2019-02-15T19:14:04.768Z,6.40
2019-02-15T19:16:34.372Z,6.57
2019-02-15T19:19:05.927Z,7.10
2019-02-15T19:21:36.443Z,6.67
2019-02-15T19:24:06.913Z,6.73
2019-02-15T19:26:37.394Z,7.97
2019-02-15T19:29:08.155Z,7.67
2019-02-15T19:31:38.681Z,8.60
2019-02-15T19:34:09.258Z,11.60
2019-02-15T19:36:39.716Z,14.87
2019-02-15T19:39:10.220Z,16.23
2019-02-15T19:41:40.792Z,20.07
2019-02-15T19:44:11.285Z,10.60
2019-02-15T19:46:41.783Z,8.97
2019-02-15T19:49:12.285Z,8.40
2019-02-15T19:51:42.789Z,8.83
2019-02-15T19:54:13.333Z,8.00
2019-02-15T19:56:43.852Z,10.47
2019-02-15T19:59:14.319Z,10.60
2019-02-15T20:01:44.834Z,9.73
2019-02-15T20:04:15.341Z,8.60
2019-02-15T20:06:45.804Z,8.43
2019-02-15T20:09:16.320Z,8.67
2019-02-15T20:11:47.068Z,9.53
2019-02-15T20:14:17.602Z,9.10
2019-02-15T20:16:48.058Z,8.57
2019-02-15T20:19:18.519Z,8.03
2019-02-15T20:21:49.092Z,8.40
2019-02-15T20:24:19.588Z,7.60
2019-02-15T20:26:50.049Z,8.17
2019-02-15T20:29:20.520Z,7.67
2019-02-15T20:31:50.984Z,7.20
2019-02-15T20:34:21.485Z,7.93
2019-02-15T20:36:52.029Z,7.93
2019-02-15T20:39:22.487Z,8.07
2019-02-15T20:41:52.977Z,9.43
2019-02-15T20:44:23.425Z,8.90
2019-02-15T20:46:53.927Z,8.27
2019-02-15T20:49:24.434Z,8.63
2019-02-15T20:51:54.898Z,8.10
2019-02-15T20:54:25.392Z,7.33
2019-02-15T20:56:55.906Z,7.20
2019-02-15T20:59:26.415Z,8.97
2019-02-15T21:01:56.945Z,8.90
2019-02-15T21:04:27.402Z,11.20
2019-02-15T21:06:57.924Z,10.10
2019-02-15T21:09:28.441Z,10.83
2019-02-15T21:11:58.955Z,10.80
2019-02-15T21:14:29.430Z,11.50
2019-02-15T21:16:59.946Z,10.70
2019-02-15T21:19:30.452Z,9.60
2019-02-15T21:22:00.923Z,8.23
2019-02-15T21:24:31.417Z,7.40
2019-02-15T21:27:01.862Z,7.23
2019-02-15T21:29:32.376Z,7.40
2019-02-15T21:32:02.979Z,7.23
2019-02-15T21:34:33.518Z,6.70
2019-02-15T21:37:03.974Z,6.70
2019-02-15T21:39:34.430Z,6.67
2019-02-15T21:42:04.923Z,6.40
2019-02-15T21:44:35.376Z,6.90
2019-02-15T21:47:05.876Z,6.90
2019-02-15T21:49:38.397Z,7.23
2019-02-15T21:52:08.614Z,6.90
2019-02-15T21:54:39.063Z,7.07
2019-02-15T21:57:09.671Z,6.93
2019-02-15T21:59:40.162Z,6.80
2019-02-15T22:02:10.771Z,6.83
2019-02-15T22:04:41.276Z,7.23
2019-02-15T22:07:11.820Z,7.23
2019-02-15T22:09:42.273Z,7.23
2019-02-15T22:12:12.733Z,7.80
2019-02-15T22:14:43.233Z,7.70
2019-02-15T22:17:13.676Z,7.83
2019-02-15T22:19:44.174Z,7.87
2019-02-15T22:22:14.605Z,7.37
2019-02-15T22:24:45.010Z,7.23
2019-02-15T22:27:15.512Z,6.80
2019-02-15T22:29:45.926Z,7.60
2019-02-15T22:32:16.429Z,6.67
2019-02-15T22:34:46.955Z,7.63
2019-02-15T22:37:17.408Z,8.17
2019-02-15T22:39:47.948Z,7.10
2019-02-15T22:42:18.415Z,7.07
2019-02-15T22:44:48.926Z,6.90
2019-02-15T22:47:19.380Z,7.30
2019-02-15T22:49:49.984Z,6.80
2019-02-15T22:52:20.489Z,7.00
2019-02-15T22:54:50.951Z,7.13
2019-02-15T22:57:21.409Z,6.70
2019-02-15T22:59:54.612Z,6.60
2019-02-15T23:02:24.007Z,7.17
2019-02-15T23:04:54.450Z,7.20
2019-02-15T23:07:24.858Z,7.43
2019-02-15T23:09:55.366Z,6.70
2019-02-15T23:12:25.840Z,6.90
2019-02-15T23:14:56.287Z,7.33
2019-02-15T23:17:26.738Z,6.83
2019-02-15T23:19:57.236Z,6.93
2019-02-15T23:22:27.707Z,7.03
2019-02-15T23:24:58.288Z,6.63
2019-02-15T23:27:28.785Z,6.97
2019-02-15T23:29:59.261Z,7.20
2019-02-15T23:32:29.768Z,7.13
2019-02-15T23:35:00.324Z,6.67
2019-02-15T23:37:30.803Z,6.87
2019-02-15T23:40:01.310Z,6.80
2019-02-15T23:42:31.823Z,7.33
2019-02-15T23:45:02.322Z,6.50
2019-02-15T23:47:32.782Z,6.63
2019-02-15T23:50:03.243Z,6.50
2019-02-15T23:52:33.751Z,6.50
2019-02-15T23:55:04.311Z,7.20
2019-02-15T23:57:34.808Z,6.23
